Aigen Im Ennstal, Austria

4:37 PM CET on February 10, 2016 (GMT +0100)
Stein an der Enns | | Change Station
CLOSE
Current Station
Personal Weather Station
Location: Stein an der Enns, STEIERMARK
Elevation: 2192 ft
Nearby Weather Stations

Elev 2192 ft 47.44 °N, 13.94 °E | Updated 3 minutes ago

Mostly Cloudy
Mostly Cloudy
35.8 °F
Feels Like 36 °F
N
2.2
Wind Variable Wind from SSW
Gusts 4.0 mph

Today
High -- | Low -- °F
--% Chance of Precip.
Yesterday
High -- | Low -- °F
Precip. -- in
Pressure 29.39 in
Visibility 18.6 miles
Clouds Few 3500 ft
Scattered Clouds 5500 ft
Mostly Cloudy 12000 ft
Windchill 36 °F
Dew Point 30 °F
Humidity 78%
Rainfall 0.18 in
Snow Depth Not available.
7:18 AM 5:17 PM
Waxing Crescent, 6% visible
METAR LOXZ 101520Z 26006KT 30KM FEW035SC SCT055SC BKN120AC 02/M03 Q0995 NOSIG RMK BKN
Pressure 29.39 in
Visibility 18.6 miles
Clouds Few 3500 ft
Scattered Clouds 5500 ft
Mostly Cloudy 12000 ft
Windchill 36 °F
Dew Point 30 °F
Humidity 78%
Rainfall 0.18 in
Snow Depth Not available.
7:18 AM 5:17 PM
Waxing Crescent, 6% visible
METAR LOXZ 101520Z 26006KT 30KM FEW035SC SCT055SC BKN120AC 02/M03 Q0995 NOSIG RMK BKN

10-Day Weather Forecast

Almanac

Astronomy

Feb. 10, 2016 Rise Set
Actual Time
Civil Twilight
Nautical Twilight
Astronomical Twilight
Moon
Length of Visible Light
Length of Day
Tomorrow will be .
, % of the Moon is Illuminated

Today's Extremes

Country Highs Country Lows

Community

WunderPhotos

Upload Photos

1,891,863 photos uploaded!

WunderBlog® & News

Nearby

Air Quality

  Air Quality AQ Index Pollutant
Not available.

Snow Depth

Station Depth Elevation

Earthquake Activity

City Distance Mag. Time & Date
Minimum magnitude displayed is 2.5.

Coastal Water Temperatures

Place Temperature

Stations

Nearby Weather Stations

Station Location Temp. Windchill Dew Point Humidity Wind Precip. Elev Updated Type